createdAt,value
2022-10-05T00:01:22.474Z,8.10
2022-10-05T00:06:07.627Z,8.30
2022-10-05T00:10:52.166Z,8.30
2022-10-05T00:15:37.700Z,8.40
2022-10-05T00:20:27.636Z,8.60
2022-10-05T00:25:17.620Z,8.40
2022-10-05T00:30:03.954Z,8.30
2022-10-05T00:34:48.170Z,8.20
2022-10-05T00:39:31.837Z,8.40
2022-10-05T00:44:33.282Z,8.10
2022-10-05T00:49:29.538Z,8.10
2022-10-05T00:54:23.819Z,8.00
2022-10-05T00:59:18.751Z,7.80
2022-10-05T01:04:13.495Z,7.60
2022-10-05T01:09:06.405Z,7.50
2022-10-05T01:13:57.354Z,7.50
2022-10-05T01:18:48.617Z,7.30
2022-10-05T01:24:02.830Z,7.30
2022-10-05T01:28:56.765Z,7.20
2022-10-05T01:33:45.249Z,7.30
2022-10-05T01:38:45.785Z,7.30
2022-10-05T01:43:37.315Z,7.50
2022-10-05T01:48:30.051Z,7.70
2022-10-05T01:53:24.177Z,7.50
2022-10-05T01:58:21.476Z,7.50
2022-10-05T02:03:11.813Z,7.40
2022-10-05T02:08:01.387Z,7.60
2022-10-05T02:12:47.467Z,7.30
2022-10-05T02:17:43.553Z,7.20
2022-10-05T02:22:32.019Z,7.20
2022-10-05T02:27:23.128Z,7.20
2022-10-05T02:32:11.057Z,7.20
2022-10-05T02:37:08.701Z,7.20
2022-10-05T02:42:02.365Z,7.20
2022-10-05T02:46:57.031Z,7.40
2022-10-05T02:51:49.331Z,7.60
2022-10-05T02:56:38.897Z,7.60
2022-10-05T03:01:28.901Z,7.40
2022-10-05T03:06:19.839Z,7.30
2022-10-05T03:11:09.765Z,7.40
2022-10-05T03:16:05.846Z,7.20
2022-10-05T03:20:56.155Z,7.10
2022-10-05T03:26:07.271Z,7.00
2022-10-05T03:30:56.458Z,7.00
2022-10-05T03:35:51.766Z,7.20
2022-10-05T03:40:40.518Z,7.00
2022-10-05T03:45:31.132Z,6.90
2022-10-05T03:50:26.777Z,6.90
2022-10-05T03:55:18.641Z,6.90
2022-10-05T04:00:06.803Z,6.90
2022-10-05T04:04:57.101Z,6.70
2022-10-05T04:09:45.062Z,6.60
2022-10-05T04:14:32.254Z,6.90
2022-10-05T04:19:20.657Z,6.90
2022-10-05T04:24:12.639Z,6.70
2022-10-05T04:29:00.393Z,6.70
2022-10-05T04:33:47.570Z,6.50
2022-10-05T04:38:42.511Z,6.40
2022-10-05T04:43:37.499Z,6.20
2022-10-05T04:48:45.114Z,6.30
2022-10-05T04:53:34.930Z,6.40
2022-10-05T04:58:31.946Z,6.50
2022-10-05T05:03:42.840Z,6.20
2022-10-05T05:08:42.957Z,6.00
2022-10-05T05:13:51.840Z,6.10
2022-10-05T05:18:50.350Z,6.50
2022-10-05T05:23:42.154Z,6.60
2022-10-05T05:28:35.858Z,6.20
2022-10-05T05:33:24.359Z,5.90
2022-10-05T05:38:21.800Z,5.90
2022-10-05T05:43:13.554Z,5.80
2022-10-05T05:48:03.493Z,5.80
2022-10-05T05:52:53.006Z,5.80
2022-10-05T05:57:42.517Z,6.00
2022-10-05T06:02:30.571Z,5.90
2022-10-05T06:07:19.495Z,5.90
2022-10-05T06:12:09.857Z,6.00
2022-10-05T06:16:57.451Z,6.00
2022-10-05T06:21:45.912Z,6.00
2022-10-05T06:26:52.397Z,6.00
2022-10-05T06:32:04.272Z,6.90
2022-10-05T06:36:52.077Z,6.80
2022-10-05T06:41:48.514Z,7.00
2022-10-05T06:46:37.299Z,7.00
2022-10-05T06:51:28.389Z,7.30
2022-10-05T06:56:18.779Z,7.30
2022-10-05T07:01:10.823Z,7.60
2022-10-05T07:06:04.830Z,8.30
2022-10-05T07:11:05.232Z,9.00
2022-10-05T07:16:00.846Z,9.80
2022-10-05T07:20:52.005Z,10.60
2022-10-05T07:25:43.088Z,11.30
2022-10-05T07:30:28.082Z,12.10
2022-10-05T07:35:43.829Z,12.50
2022-10-05T07:40:33.972Z,13.10
2022-10-05T07:45:30.436Z,13.40
2022-10-05T07:50:21.134Z,13.90
2022-10-05T07:55:14.272Z,14.40
2022-10-05T08:00:01.994Z,15.00
2022-10-05T08:04:54.754Z,15.50
2022-10-05T08:09:42.427Z,15.60
2022-10-05T08:14:34.857Z,15.80
2022-10-05T08:19:23.710Z,16.40
2022-10-05T08:24:16.852Z,17.10
2022-10-05T08:29:13.806Z,17.80
2022-10-05T08:34:07.405Z,18.50
2022-10-05T08:38:54.891Z,18.90
2022-10-05T08:44:13.076Z,19.40
2022-10-05T08:49:46.859Z,19.70
2022-10-05T08:54:50.652Z,20.80
2022-10-05T08:59:59.067Z,21.20
2022-10-05T09:04:58.267Z,21.60
2022-10-05T09:10:20.349Z,22.00
2022-10-05T09:15:25.853Z,22.70
2022-10-05T09:20:23.315Z,23.40
2022-10-05T09:25:21.378Z,24.00
2022-10-05T09:30:30.604Z,24.90
2022-10-05T09:35:32.030Z,24.70
2022-10-05T09:41:01.109Z,25.30
2022-10-05T09:46:04.132Z,26.00
2022-10-05T09:51:11.196Z,26.40
2022-10-05T09:56:21.300Z,26.60
2022-10-05T10:01:44.892Z,26.80
2022-10-05T10:07:02.547Z,27.20
2022-10-05T10:12:14.846Z,26.90
2022-10-05T10:17:23.845Z,27.30
2022-10-05T10:22:42.954Z,27.00
2022-10-05T10:27:50.286Z,27.10
2022-10-05T10:33:18.229Z,27.60
2022-10-05T10:38:31.143Z,27.40
2022-10-05T10:43:41.296Z,28.40
2022-10-05T10:48:57.621Z,29.50
2022-10-05T10:54:28.366Z,30.20
2022-10-05T10:59:48.007Z,30.10
2022-10-05T11:05:03.717Z,30.40
2022-10-05T11:10:05.334Z,30.70
2022-10-05T11:15:01.369Z,29.80
2022-10-05T11:20:07.292Z,29.80
2022-10-05T11:25:07.973Z,30.00
2022-10-05T11:30:23.579Z,30.00
2022-10-05T11:35:34.113Z,30.60
2022-10-05T11:40:45.407Z,30.60
2022-10-05T11:45:40.215Z,31.30
2022-10-05T11:50:34.912Z,31.00
2022-10-05T11:55:25.784Z,32.10
2022-10-05T12:00:17.374Z,32.40
2022-10-05T12:05:07.954Z,31.20
2022-10-05T12:10:17.615Z,31.70
2022-10-05T12:15:08.570Z,32.00
2022-10-05T12:19:55.915Z,32.70
2022-10-05T12:25:03.425Z,33.70
2022-10-05T12:29:54.642Z,33.00
2022-10-05T12:34:50.583Z,30.50
2022-10-05T12:39:43.375Z,32.10
2022-10-05T12:44:44.941Z,32.70
2022-10-05T12:49:49.963Z,32.10
2022-10-05T12:54:47.378Z,33.00
2022-10-05T12:59:41.324Z,33.60
2022-10-05T13:04:38.578Z,34.10
2022-10-05T13:09:30.502Z,33.10
2022-10-05T13:14:23.888Z,34.20
2022-10-05T13:19:25.872Z,33.50
2022-10-05T13:24:17.486Z,34.40
2022-10-05T13:29:12.821Z,35.30
2022-10-05T13:34:13.332Z,34.50
2022-10-05T13:39:03.737Z,32.60
2022-10-05T13:43:56.387Z,33.50
2022-10-05T13:48:55.287Z,33.10
2022-10-05T13:53:46.540Z,34.10
2022-10-05T13:58:40.659Z,33.90
2022-10-05T14:03:35.049Z,33.00
2022-10-05T14:08:19.127Z,35.20
2022-10-05T14:13:10.657Z,36.40
2022-10-05T14:17:55.692Z,36.10
2022-10-05T14:22:43.146Z,34.50
2022-10-05T14:27:28.481Z,35.50
2022-10-05T14:32:16.235Z,35.60
2022-10-05T14:37:04.938Z,35.90
2022-10-05T14:41:51.844Z,36.00
2022-10-05T14:46:38.727Z,36.20
2022-10-05T14:51:31.983Z,36.50
2022-10-05T14:56:34.342Z,37.30
2022-10-05T15:01:26.628Z,37.20
2022-10-05T15:06:20.083Z,36.70
2022-10-05T15:11:09.236Z,36.70
2022-10-05T15:15:57.912Z,35.00
2022-10-05T15:20:53.221Z,34.70
2022-10-05T15:25:40.546Z,34.70
2022-10-05T15:30:24.708Z,35.80
2022-10-05T15:35:36.219Z,34.30
2022-10-05T15:40:27.066Z,33.20
2022-10-05T15:45:20.623Z,33.20
2022-10-05T15:50:15.760Z,32.40
2022-10-05T15:55:26.574Z,32.20
2022-10-05T16:00:14.142Z,31.90
2022-10-05T16:05:08.704Z,31.20
2022-10-05T16:09:58.323Z,30.50
2022-10-05T16:14:56.117Z,29.30
2022-10-05T16:19:47.910Z,27.00
2022-10-05T16:24:51.862Z,24.20
2022-10-05T16:29:48.802Z,22.30
2022-10-05T16:34:45.162Z,21.30
2022-10-05T16:39:51.689Z,20.50
2022-10-05T16:44:42.911Z,19.90
2022-10-05T16:49:39.669Z,19.40
2022-10-05T16:54:32.916Z,18.80
2022-10-05T16:59:49.502Z,18.30
2022-10-05T17:04:46.238Z,18.00
2022-10-05T17:10:11.467Z,17.80
2022-10-05T17:15:11.504Z,17.60
2022-10-05T17:20:10.843Z,17.30
2022-10-05T17:25:02.269Z,17.10
2022-10-05T17:29:51.985Z,16.90
2022-10-05T17:34:37.762Z,16.70
2022-10-05T17:39:24.492Z,16.50
2022-10-05T17:44:29.416Z,16.40
2022-10-05T17:49:29.190Z,16.30
2022-10-05T17:54:40.882Z,16.00
2022-10-05T17:59:40.493Z,16.10
2022-10-05T18:04:42.460Z,16.10
2022-10-05T18:09:51.983Z,15.80
2022-10-05T18:15:03.137Z,15.70
2022-10-05T18:20:15.232Z,16.10
2022-10-05T18:25:06.180Z,16.30
2022-10-05T18:30:05.648Z,16.40
2022-10-05T18:35:02.155Z,16.30
2022-10-05T18:40:01.039Z,16.10
2022-10-05T18:44:51.392Z,15.80
2022-10-05T18:49:49.740Z,15.40
2022-10-05T18:54:44.703Z,15.00
2022-10-05T18:59:45.693Z,14.90
2022-10-05T19:04:41.367Z,14.50
2022-10-05T19:09:44.272Z,14.40
2022-10-05T19:14:39.200Z,14.40
2022-10-05T19:19:45.262Z,14.40
2022-10-05T19:24:41.863Z,14.40
2022-10-05T19:29:40.718Z,14.50
2022-10-05T19:34:46.984Z,14.50
2022-10-05T19:39:39.237Z,14.40
2022-10-05T19:44:36.499Z,14.60
2022-10-05T19:49:49.690Z,14.20
2022-10-05T19:54:33.802Z,14.00
2022-10-05T19:59:21.648Z,14.10
2022-10-05T20:04:07.113Z,14.20
2022-10-05T20:08:53.783Z,14.20
2022-10-05T20:13:39.453Z,14.10
2022-10-05T20:19:05.330Z,13.90
2022-10-05T20:23:48.949Z,13.70
2022-10-05T20:28:34.663Z,13.50
2022-10-05T20:33:18.354Z,13.40
2022-10-05T20:38:01.995Z,13.30
2022-10-05T20:42:45.628Z,13.60
2022-10-05T20:47:30.741Z,13.60
2022-10-05T20:52:15.270Z,13.30
2022-10-05T20:56:59.098Z,13.10
2022-10-05T21:01:45.714Z,13.10
2022-10-05T21:06:30.580Z,12.90
2022-10-05T21:11:14.368Z,12.80
2022-10-05T21:15:58.577Z,12.60
2022-10-05T21:20:42.838Z,12.50
2022-10-05T21:25:28.277Z,12.40
2022-10-05T21:30:13.063Z,12.30
2022-10-05T21:34:57.466Z,12.10
2022-10-05T21:39:41.435Z,12.50
2022-10-05T21:44:26.324Z,12.60
2022-10-05T21:49:11.181Z,12.50
2022-10-05T21:53:57.053Z,12.40
2022-10-05T21:58:42.490Z,12.40
2022-10-05T22:03:27.775Z,13.00
2022-10-05T22:08:21.094Z,13.60
2022-10-05T22:13:05.701Z,13.50
2022-10-05T22:17:49.311Z,13.20
2022-10-05T22:22:34.462Z,12.80
2022-10-05T22:27:18.447Z,12.50
2022-10-05T22:32:01.982Z,12.30
2022-10-05T22:36:46.277Z,12.00
2022-10-05T22:41:31.167Z,12.00
2022-10-05T22:46:15.588Z,11.90
2022-10-05T22:50:59.120Z,11.80
2022-10-05T22:55:42.715Z,11.80
2022-10-05T23:00:40.361Z,11.80
2022-10-05T23:05:30.146Z,11.70
2022-10-05T23:10:15.461Z,11.60
2022-10-05T23:14:58.867Z,11.40
2022-10-05T23:19:43.658Z,11.50
2022-10-05T23:24:27.109Z,11.80
2022-10-05T23:29:10.838Z,11.80
2022-10-05T23:33:54.807Z,11.80
2022-10-05T23:38:39.639Z,11.90
2022-10-05T23:43:23.637Z,11.90
2022-10-05T23:48:07.134Z,11.80
2022-10-05T23:52:50.635Z,12.10
2022-10-05T23:57:35.490Z,12.30
